createdAt,value
2019-04-04T04:35:44.310Z,0
2019-04-04T04:36:56.933Z,0
2019-04-04T04:38:09.225Z,0
2019-04-04T04:39:21.658Z,0
2019-04-04T04:40:33.699Z,0
2019-04-04T04:41:46.152Z,0
2019-04-04T04:42:58.408Z,0
2019-04-04T04:44:10.776Z,0
2019-04-04T04:46:35.487Z,0
2019-04-04T04:47:47.951Z,0
2019-04-04T04:49:00.255Z,0
2019-04-04T04:50:12.550Z,0
2019-04-04T04:51:24.994Z,0
2019-04-04T04:53:49.602Z,0
2019-04-04T04:55:01.994Z,0
2019-04-04T04:56:14.323Z,0
2019-04-04T04:57:26.693Z,0
2019-04-04T04:58:39.012Z,0
2019-04-04T04:59:51.422Z,0
2019-04-04T05:01:03.721Z,0
2019-04-04T05:03:28.518Z,0
2019-04-04T05:04:40.885Z,0
2019-04-04T05:05:53.139Z,0
2019-04-04T05:08:17.911Z,0
2019-04-04T05:10:42.652Z,0
2019-04-04T05:11:54.927Z,0
2019-04-04T05:13:07.613Z,0
2019-04-04T05:14:19.640Z,0
2019-04-04T05:15:32.047Z,0
2019-04-04T05:17:56.768Z,0
2019-04-04T05:19:09.067Z,0
2019-04-04T05:20:21.777Z,0
2019-04-04T05:21:33.797Z,0
2019-04-04T05:22:46.116Z,0
2019-04-04T05:23:58.462Z,0
2019-04-04T05:25:10.825Z,0
2019-04-04T05:27:35.620Z,0
2019-04-04T05:28:48.019Z,0
2019-04-04T05:30:00.267Z,0
2019-04-04T05:31:12.623Z,0
2019-04-04T05:32:24.969Z,0
2019-04-04T05:34:49.724Z,0
2019-04-04T05:36:06.297Z,0
2019-04-04T05:37:20.563Z,0
2019-04-04T05:38:26.725Z,5
2019-04-04T05:39:39.095Z,5
2019-04-04T05:40:51.515Z,5
2019-04-04T05:42:03.822Z,5
2019-04-04T05:43:16.161Z,5
2019-04-04T05:44:28.521Z,5
2019-04-04T05:45:40.912Z,5
2019-04-04T05:46:53.242Z,5
2019-04-04T05:48:05.649Z,0
2019-04-04T05:49:17.929Z,0
2019-04-04T05:50:30.401Z,0
2019-04-04T05:51:42.640Z,0
2019-04-04T05:52:55.026Z,0
2019-04-04T05:54:07.460Z,0
2019-04-04T05:56:32.136Z,0
2019-04-04T05:58:56.790Z,0
2019-04-04T06:00:09.208Z,5
2019-04-04T06:01:21.585Z,5
2019-04-04T06:02:33.932Z,5
2019-04-04T06:03:46.173Z,5
2019-04-04T06:04:58.523Z,5
2019-04-04T06:06:10.913Z,5
2019-04-04T06:07:23.248Z,5
2019-04-04T06:08:35.666Z,5
2019-04-04T06:11:00.351Z,5
2019-04-04T06:12:12.738Z,0
2019-04-04T06:13:25.046Z,0
2019-04-04T06:14:37.942Z,0
2019-04-04T06:15:49.762Z,0
2019-04-04T06:17:02.085Z,0
2019-04-04T06:18:14.543Z,0
2019-04-04T06:19:26.781Z,0
2019-04-04T06:20:39.146Z,0
2019-04-04T06:23:03.856Z,0
2019-04-04T06:25:28.668Z,0
2019-04-04T06:26:41.005Z,0
2019-04-04T06:27:53.259Z,0
2019-04-04T06:29:05.722Z,0
2019-04-04T06:30:17.984Z,0
2019-04-04T06:31:30.327Z,0
2019-04-04T06:32:42.785Z,0
2019-04-04T06:33:55.156Z,5
2019-04-04T06:35:07.390Z,5
2019-04-04T06:36:19.838Z,5
2019-04-04T06:37:32.117Z,5
2019-04-04T06:39:56.862Z,5
2019-04-04T06:41:09.286Z,5
2019-04-04T06:42:21.560Z,5
2019-04-04T06:43:33.966Z,5
2019-04-04T06:44:46.229Z,5
2019-04-04T06:47:10.980Z,11
2019-04-04T06:48:26.468Z,11
2019-04-04T06:49:35.769Z,11
2019-04-04T06:50:49.445Z,11
2019-04-04T06:52:01.148Z,11
2019-04-04T06:53:12.727Z,5
2019-04-04T06:54:25.088Z,5
2019-04-04T06:55:37.441Z,5
2019-04-04T06:56:49.829Z,5
2019-04-04T06:58:02.146Z,5
2019-04-04T06:59:14.559Z,5
2019-04-04T07:00:26.932Z,5
2019-04-04T07:01:39.211Z,5
2019-04-04T07:02:51.884Z,5
2019-04-04T07:04:03.969Z,5
2019-04-04T07:05:16.255Z,5
2019-04-04T07:06:28.608Z,5
2019-04-04T07:07:40.996Z,5
2019-04-04T07:08:53.530Z,5
2019-04-04T07:11:18.127Z,5
2019-04-04T07:12:30.406Z,5
2019-04-04T07:13:42.760Z,5
2019-04-04T07:14:55.112Z,5
2019-04-04T07:16:07.586Z,5
2019-04-04T07:18:32.222Z,5
2019-04-04T07:19:44.530Z,5
2019-04-04T07:20:56.910Z,5
2019-04-04T07:22:13.016Z,5
2019-04-04T07:23:24.792Z,5
2019-04-04T07:24:33.944Z,5
2019-04-04T07:25:46.307Z,5
2019-04-04T07:26:58.704Z,5
2019-04-04T07:28:11.132Z,5
2019-04-04T07:29:23.390Z,5
2019-04-04T07:31:48.082Z,5
2019-04-04T07:33:03.651Z,11
2019-04-04T07:35:25.182Z,11
2019-04-04T07:37:49.881Z,11
2019-04-04T07:39:02.269Z,11
2019-04-04T07:40:14.563Z,11
2019-04-04T07:41:26.943Z,11
2019-04-04T07:42:39.303Z,11
2019-04-04T07:43:51.681Z,11
2019-04-04T07:45:03.968Z,11
2019-04-04T07:46:16.346Z,11
2019-04-04T07:47:28.796Z,11
2019-04-04T07:48:41.078Z,11
2019-04-04T07:49:53.406Z,11
2019-04-04T07:51:05.751Z,11
2019-04-04T07:52:18.191Z,16
2019-04-04T07:53:30.534Z,16
2019-04-04T07:54:42.916Z,16
2019-04-04T07:55:55.197Z,22
2019-04-04T07:57:07.529Z,22
2019-04-04T07:59:32.293Z,28
2019-04-04T08:00:44.682Z,22
2019-04-04T08:01:56.944Z,16
2019-04-04T08:03:09.287Z,16
2019-04-04T08:04:21.770Z,16
2019-04-04T08:05:34.032Z,16
2019-04-04T08:06:46.503Z,16
2019-04-04T08:07:58.762Z,16
2019-04-04T08:09:11.062Z,11
2019-04-04T08:12:48.237Z,11
2019-04-04T08:14:00.486Z,11
2019-04-04T08:15:12.923Z,11
2019-04-04T08:16:25.188Z,11
2019-04-04T08:17:37.538Z,11
2019-04-04T08:18:49.969Z,11
2019-04-04T08:20:02.350Z,11
2019-04-04T08:21:14.602Z,11
2019-04-04T08:23:39.360Z,11
2019-04-04T08:24:51.675Z,11
2019-04-04T08:26:04.110Z,11
2019-04-04T08:27:16.398Z,11
2019-04-04T08:28:28.738Z,11
2019-04-04T08:29:41.219Z,11
2019-04-04T08:30:53.437Z,11
2019-04-04T08:32:05.909Z,11
2019-04-04T08:33:18.167Z,11
2019-04-04T08:34:30.595Z,11
2019-04-04T08:35:42.862Z,11
2019-04-04T08:36:55.351Z,11
2019-04-04T08:38:07.587Z,11
2019-04-04T08:39:19.944Z,11
2019-04-04T08:40:32.280Z,11
2019-04-04T08:41:44.720Z,11
2019-04-04T08:42:57.027Z,11
2019-04-04T08:44:09.424Z,11
2019-04-04T08:45:21.762Z,16
2019-04-04T08:48:58.767Z,16
2019-04-04T08:50:11.179Z,16
2019-04-04T08:52:35.839Z,16
2019-04-04T08:53:48.281Z,16
2019-04-04T08:55:00.548Z,16
2019-04-04T08:56:12.910Z,22
2019-04-04T08:57:25.315Z,22
2019-04-04T08:58:37.636Z,22
2019-04-04T08:59:49.972Z,22
2019-04-04T09:01:02.307Z,22
2019-04-04T09:02:14.890Z,22
2019-04-04T09:03:27.047Z,22
2019-04-04T09:04:39.377Z,22
2019-04-04T09:05:51.806Z,22
2019-04-04T09:07:06.984Z,22
2019-04-04T09:08:16.484Z,28
2019-04-04T09:09:28.828Z,28
2019-04-04T09:11:53.596Z,28
2019-04-04T09:13:05.870Z,33
2019-04-04T09:14:18.257Z,33
2019-04-04T09:15:30.579Z,39
2019-04-04T09:16:43.010Z,39
2019-04-04T09:17:55.306Z,33
2019-04-04T09:19:08.658Z,28
2019-04-04T09:20:20.208Z,28
2019-04-04T09:21:32.345Z,28
2019-04-04T09:22:44.725Z,28
2019-04-04T09:23:57.092Z,33
2019-04-04T09:25:09.562Z,39
2019-04-04T09:26:21.797Z,39
2019-04-04T09:27:34.138Z,39
2019-04-04T09:28:46.469Z,39
2019-04-04T09:29:58.844Z,39
2019-04-04T09:31:11.208Z,33
2019-04-04T09:32:23.541Z,33
2019-04-04T09:33:35.888Z,33
2019-04-04T09:36:00.633Z,28
2019-04-04T09:37:12.969Z,28
2019-04-04T09:38:25.321Z,28
2019-04-04T09:39:37.681Z,33
2019-04-04T09:40:50.091Z,39
2019-04-04T09:42:02.449Z,45
2019-04-04T09:43:14.738Z,45
2019-04-04T09:44:27.118Z,45
2019-04-04T09:45:39.554Z,45
2019-04-04T09:46:51.932Z,45
2019-04-04T09:48:04.150Z,45
2019-04-04T09:49:16.514Z,45
2019-04-04T09:50:28.883Z,45
2019-04-04T09:51:41.378Z,33
2019-04-04T09:52:53.620Z,33
2019-04-04T09:54:05.940Z,39
2019-04-04T09:55:18.297Z,45
2019-04-04T09:56:30.651Z,45
2019-04-04T09:57:42.989Z,45
2019-04-04T10:00:07.711Z,45
2019-04-04T10:01:20.279Z,45
2019-04-04T10:02:32.555Z,50
2019-04-04T10:03:44.876Z,50
2019-04-04T10:04:57.136Z,50
2019-04-04T10:06:09.878Z,45
2019-04-04T10:07:21.860Z,45
2019-04-04T10:08:38.504Z,45
2019-04-04T10:09:50.738Z,45
2019-04-04T10:11:03.099Z,45
2019-04-04T10:12:11.275Z,45
2019-04-04T10:13:23.647Z,45
2019-04-04T10:14:36.057Z,45
2019-04-04T10:15:48.474Z,45
2019-04-04T10:17:00.708Z,50
2019-04-04T10:18:13.052Z,50
2019-04-04T10:19:25.413Z,50
2019-04-04T10:20:37.779Z,45
2019-04-04T10:21:50.202Z,39
2019-04-04T10:23:03.534Z,33
2019-04-04T10:24:14.816Z,28
2019-04-04T10:25:27.165Z,22
2019-04-04T10:26:39.516Z,22
2019-04-04T10:27:52.029Z,28
2019-04-04T10:29:04.272Z,28
2019-04-04T10:30:16.578Z,28
2019-04-04T10:31:28.942Z,28
2019-04-04T10:32:41.447Z,22
2019-04-04T10:33:53.660Z,22
2019-04-04T10:35:06.000Z,28
2019-04-04T10:36:18.475Z,28
2019-04-04T10:37:30.732Z,22
2019-04-04T10:38:43.064Z,22
2019-04-04T10:39:55.418Z,22
2019-04-04T10:41:07.840Z,22
2019-04-04T10:42:20.314Z,22
2019-04-04T10:43:32.528Z,22
2019-04-04T10:44:44.913Z,22
2019-04-04T10:45:57.183Z,22
2019-04-04T10:48:21.904Z,28
2019-04-04T10:49:34.289Z,28
2019-04-04T10:50:46.612Z,28
2019-04-04T10:51:58.985Z,28
2019-04-04T10:53:11.528Z,28
2019-04-04T10:54:23.672Z,33
2019-04-04T10:55:36.043Z,33
2019-04-04T10:56:48.416Z,33
2019-04-04T10:58:00.795Z,33
2019-04-04T10:59:13.113Z,33
2019-04-04T11:00:25.494Z,33
2019-04-04T11:01:37.876Z,33
2019-04-04T11:02:50.268Z,39
2019-04-04T11:04:02.534Z,45
2019-04-04T11:05:14.863Z,45
2019-04-04T11:06:27.230Z,39
2019-04-04T11:07:39.618Z,39
2019-04-04T11:08:52.089Z,50
2019-04-04T11:10:04.289Z,50
2019-04-04T11:12:29.001Z,50
2019-04-04T11:13:41.371Z,50
2019-04-04T11:14:53.740Z,50
2019-04-04T11:16:06.076Z,50
2019-04-04T11:17:18.426Z,56
2019-04-04T11:18:30.791Z,61
2019-04-04T11:19:43.158Z,67
2019-04-04T11:20:55.494Z,73
2019-04-04T11:22:07.838Z,73
2019-04-04T11:23:20.278Z,73
2019-04-04T11:24:32.569Z,73
2019-04-04T11:25:44.997Z,73
2019-04-04T11:26:57.289Z,61
2019-04-04T11:28:09.627Z,50
2019-04-04T11:29:22.127Z,50
2019-04-04T11:30:34.348Z,50
2019-04-04T11:31:46.738Z,50
2019-04-04T11:32:59.049Z,45
2019-04-04T11:34:11.418Z,45
2019-04-04T11:36:36.371Z,50
2019-04-04T11:37:48.455Z,45
2019-04-04T11:39:00.963Z,45
2019-04-04T11:40:13.212Z,45
2019-04-04T11:41:25.517Z,45
2019-04-04T11:42:37.903Z,45
2019-04-04T11:43:50.275Z,45
2019-04-04T11:45:02.812Z,50
2019-04-04T11:46:14.948Z,50
2019-04-04T11:47:27.352Z,45
2019-04-04T11:48:39.661Z,39
2019-04-04T11:49:52.004Z,39
2019-04-04T11:51:04.463Z,33
2019-04-04T11:52:16.838Z,28
2019-04-04T11:53:29.071Z,22
2019-04-04T11:54:41.462Z,22
2019-04-04T11:55:53.820Z,16
2019-04-04T11:57:06.147Z,22
2019-04-04T11:58:18.490Z,28
2019-04-04T12:00:43.263Z,33
2019-04-04T12:01:55.601Z,33
2019-04-04T12:03:08.329Z,33
2019-04-04T12:04:20.365Z,39
2019-04-04T12:05:32.666Z,39
2019-04-04T12:06:45.052Z,33
2019-04-04T12:07:57.336Z,28
2019-04-04T12:09:09.763Z,22
2019-04-04T12:10:22.114Z,22
2019-04-04T12:11:34.398Z,22
2019-04-04T12:12:46.781Z,22
2019-04-04T12:13:59.125Z,22
2019-04-04T12:15:11.552Z,22
2019-04-04T12:16:23.918Z,22
2019-04-04T12:17:36.300Z,22
2019-04-04T12:18:48.550Z,28
2019-04-04T12:20:00.915Z,33
2019-04-04T12:21:13.260Z,33
2019-04-04T12:22:25.600Z,28
2019-04-04T12:24:50.384Z,28
2019-04-04T12:26:02.736Z,28
2019-04-04T12:27:15.149Z,28
2019-04-04T12:28:27.575Z,33
2019-04-04T12:29:39.727Z,33
2019-04-04T12:30:52.077Z,33
2019-04-04T12:32:04.529Z,28
2019-04-04T12:33:16.889Z,33
2019-04-04T12:34:29.168Z,33
2019-04-04T12:35:41.507Z,33
2019-04-04T12:36:54.343Z,39
2019-04-04T12:38:06.255Z,39
2019-04-04T12:39:18.600Z,39
2019-04-04T12:40:31.014Z,39
2019-04-04T12:41:43.463Z,39
2019-04-04T12:42:55.665Z,39
2019-04-04T12:44:08.040Z,45
2019-04-04T12:45:20.398Z,50
2019-04-04T12:46:32.736Z,50
2019-04-04T12:48:57.506Z,39
2019-04-04T12:51:22.167Z,39
2019-04-04T12:52:34.496Z,45
2019-04-04T12:53:47.078Z,39
2019-04-04T12:54:59.979Z,33
2019-04-04T12:56:11.596Z,39
2019-04-04T12:57:24.004Z,39
2019-04-04T12:58:36.350Z,39
2019-04-04T12:59:48.627Z,39
2019-04-04T13:01:01.076Z,39
2019-04-04T13:02:13.400Z,33
2019-04-04T13:03:25.769Z,28
2019-04-04T13:04:38.044Z,33
2019-04-04T13:05:50.503Z,33
2019-04-04T13:07:06.074Z,33
2019-04-04T13:08:15.111Z,39
2019-04-04T13:09:27.467Z,33
2019-04-04T13:10:39.851Z,22
2019-04-04T13:13:04.620Z,16
2019-04-04T13:14:16.886Z,16
2019-04-04T13:15:29.246Z,11
2019-04-04T13:16:41.605Z,11
2019-04-04T13:17:54.016Z,11
2019-04-04T13:19:06.373Z,11
2019-04-04T13:20:18.709Z,5
2019-04-04T13:21:31.191Z,5
2019-04-04T13:22:43.439Z,5
2019-04-04T13:23:55.736Z,5
2019-04-04T13:25:08.170Z,11
2019-04-04T13:26:20.449Z,11
2019-04-04T13:27:32.849Z,11
2019-04-04T13:28:45.210Z,16
2019-04-04T13:29:57.533Z,16
2019-04-04T13:31:09.860Z,16
2019-04-04T13:32:22.220Z,22
2019-04-04T13:33:34.667Z,22
2019-04-04T13:34:46.931Z,22
2019-04-04T13:37:11.727Z,22
2019-04-04T13:38:24.015Z,22
2019-04-04T13:39:36.400Z,16
2019-04-04T13:40:49.841Z,16
2019-04-04T13:42:01.096Z,16
2019-04-04T13:43:13.527Z,11
2019-04-04T13:44:25.872Z,11
2019-04-04T13:45:38.137Z,11
2019-04-04T13:46:50.481Z,5
2019-04-04T13:48:02.837Z,5
2019-04-04T13:49:15.221Z,5
2019-04-04T13:50:27.534Z,5
2019-04-04T13:51:39.896Z,5
2019-04-04T13:52:52.283Z,5
2019-04-04T13:54:04.606Z,5
2019-04-04T13:55:17.088Z,11
2019-04-04T13:56:29.380Z,11
2019-04-04T13:57:41.795Z,11
2019-04-04T13:58:54.086Z,11
2019-04-04T14:01:18.839Z,11
2019-04-04T14:03:43.453Z,11
2019-04-04T14:04:55.859Z,11
2019-04-04T14:07:20.591Z,11
2019-04-04T14:08:32.885Z,11
2019-04-04T14:09:45.304Z,11
2019-04-04T14:10:57.604Z,11
2019-04-04T14:12:10.000Z,16
2019-04-04T14:13:22.418Z,16
2019-04-04T14:14:34.699Z,16
2019-04-04T14:15:47.037Z,16
2019-04-04T14:16:59.380Z,16
2019-04-04T14:18:11.869Z,16
2019-04-04T14:19:24.057Z,16
2019-04-04T14:20:36.583Z,16
2019-04-04T14:21:49.619Z,16
2019-04-04T14:23:01.112Z,16
2019-04-04T14:25:25.863Z,11
2019-04-04T14:26:38.219Z,11
2019-04-04T14:27:50.533Z,11
2019-04-04T14:29:02.899Z,11
2019-04-04T14:30:15.246Z,11
2019-04-04T14:31:27.601Z,11
2019-04-04T14:32:39.944Z,11
2019-04-04T14:33:52.321Z,11
2019-04-04T14:35:04.730Z,11
2019-04-04T14:36:17.085Z,5
2019-04-04T14:37:29.402Z,5
2019-04-04T14:38:41.776Z,11
2019-04-04T14:39:54.052Z,11
2019-04-04T14:41:06.647Z,11
2019-04-04T14:42:18.765Z,5
2019-04-04T14:43:31.125Z,11
2019-04-04T14:44:43.467Z,11
2019-04-04T14:45:55.822Z,11
2019-04-04T14:47:08.180Z,11
2019-04-04T14:49:32.894Z,11
2019-04-04T14:50:45.323Z,11
2019-04-04T14:51:57.592Z,11
2019-04-04T14:53:09.954Z,16
2019-04-04T14:54:22.412Z,16
2019-04-04T14:55:34.665Z,16
2019-04-04T14:56:47.215Z,16
2019-04-04T14:57:59.362Z,16
2019-04-04T14:59:11.754Z,16
2019-04-04T15:00:24.052Z,16
2019-04-04T15:01:36.482Z,16
2019-04-04T15:02:49.043Z,16
2019-04-04T15:04:01.141Z,16
2019-04-04T15:05:13.530Z,16
2019-04-04T15:06:25.867Z,11
2019-04-04T15:07:38.185Z,11
2019-04-04T15:08:50.775Z,11
2019-04-04T15:10:02.878Z,11
2019-04-04T15:11:15.356Z,11
2019-04-04T15:13:39.940Z,11
2019-04-04T15:14:52.291Z,11
2019-04-04T15:16:04.652Z,11
2019-04-04T15:17:16.996Z,11
2019-04-04T15:18:29.431Z,11
2019-04-04T15:19:41.791Z,11
2019-04-04T15:20:54.084Z,11
2019-04-04T15:22:06.755Z,11
2019-04-04T15:23:18.822Z,11
2019-04-04T15:24:31.182Z,11
